createdAt,value
2018-11-03T00:00:58.498Z,3.87
2018-11-03T00:03:27.738Z,3.30
2018-11-03T00:05:56.659Z,7.03
2018-11-03T00:08:25.742Z,3.33
2018-11-03T00:11:00.104Z,5.23
2018-11-03T00:13:28.782Z,6.13
2018-11-03T00:15:57.482Z,4.77
2018-11-03T00:18:26.166Z,5.23
2018-11-03T00:20:55.200Z,5.43
2018-11-03T00:23:23.878Z,6.30
2018-11-03T00:25:52.567Z,6.17
2018-11-03T00:28:21.250Z,5.37
2018-11-03T00:30:49.956Z,6.07
2018-11-03T00:33:18.671Z,4.53
2018-11-03T00:35:47.337Z,3.87
2018-11-03T00:38:16.022Z,2.40
2018-11-03T00:40:44.713Z,4.50
2018-11-03T00:43:13.407Z,4.50
2018-11-03T00:45:42.102Z,3.37
2018-11-03T00:48:10.845Z,5.87
2018-11-03T00:50:39.473Z,3.83
2018-11-03T00:53:08.162Z,5.50
2018-11-03T00:55:36.902Z,5.10
2018-11-03T00:58:05.582Z,3.07
2018-11-03T01:00:34.282Z,3.03
2018-11-03T01:03:02.962Z,6.20
2018-11-03T01:05:31.669Z,5.13
2018-11-03T01:08:00.375Z,5.27
2018-11-03T01:10:29.079Z,4.33
2018-11-03T01:12:57.766Z,4.13
2018-11-03T01:15:26.458Z,4.20
2018-11-03T01:17:55.141Z,3.33
2018-11-03T01:20:23.830Z,3.20
2018-11-03T01:22:52.510Z,2.93
2018-11-03T01:25:21.205Z,4.57
2018-11-03T01:27:49.902Z,5.80
2018-11-03T01:30:18.594Z,3.87
2018-11-03T01:32:47.278Z,4.30
2018-11-03T01:35:16.052Z,6.67
2018-11-03T01:37:44.724Z,3.50
2018-11-03T01:40:14.042Z,6.63
2018-11-03T01:42:42.732Z,5.13
2018-11-03T01:45:11.454Z,9.70
2018-11-03T01:47:40.138Z,5.83
2018-11-03T01:50:10.526Z,7.22
2018-11-03T01:52:39.981Z,7.50
2018-11-03T01:55:08.819Z,11.17
2018-11-03T01:57:38.211Z,9.80
2018-11-03T02:00:07.887Z,12.40
2018-11-03T02:02:36.617Z,10.23
2018-11-03T02:05:06.238Z,15.23
2018-11-03T02:07:34.938Z,11.23
2018-11-03T02:10:03.670Z,9.93
2018-11-03T02:12:32.362Z,8.83
2018-11-03T02:15:01.051Z,15.23
2018-11-03T02:17:29.749Z,8.90
2018-11-03T02:19:58.427Z,8.48
2018-11-03T02:22:27.119Z,9.45
2018-11-03T02:24:55.807Z,9.60
2018-11-03T02:27:24.494Z,6.90
2018-11-03T02:29:53.199Z,9.30
2018-11-03T02:32:21.886Z,12.30
2018-11-03T02:34:50.590Z,10.93
2018-11-03T02:37:19.295Z,6.33
2018-11-03T02:39:47.978Z,8.27
2018-11-03T02:42:16.683Z,5.73
2018-11-03T02:44:45.354Z,7.90
2018-11-03T02:47:14.049Z,4.90
2018-11-03T02:49:42.734Z,6.90
2018-11-03T02:52:11.501Z,6.97
2018-11-03T02:54:40.123Z,8.13
2018-11-03T02:57:08.815Z,5.43
2018-11-03T02:59:37.490Z,6.10
2018-11-03T03:02:06.266Z,5.37
2018-11-03T03:04:34.963Z,8.50
2018-11-03T03:07:03.657Z,8.20
2018-11-03T03:09:32.344Z,8.87
2018-11-03T03:16:53.258Z,6.73
2018-11-03T03:19:21.951Z,10.93
2018-11-03T03:21:50.634Z,8.77
2018-11-03T03:24:19.332Z,9.23
2018-11-03T03:26:48.025Z,6.27
2018-11-03T03:29:16.753Z,7.93
2018-11-03T03:31:45.402Z,5.70
2018-11-03T03:34:14.091Z,6.77
2018-11-03T03:36:42.782Z,7.90
2018-11-03T03:39:11.919Z,8.43
2018-11-03T03:41:40.927Z,6.10
2018-11-03T03:44:09.610Z,13.00
2018-11-03T03:46:38.307Z,10.00
2018-11-03T03:49:07.005Z,18.53
2018-11-03T03:51:35.738Z,14.23
2018-11-03T03:54:04.785Z,14.77
2018-11-03T03:56:33.481Z,18.57
2018-11-03T03:59:02.739Z,17.07
2018-11-03T04:01:31.444Z,14.40
2018-11-03T04:04:00.131Z,14.97
2018-11-03T04:06:28.839Z,17.63
2018-11-03T04:08:57.535Z,17.77
2018-11-03T04:11:27.138Z,18.17
2018-11-03T04:13:55.824Z,19.27
2018-11-03T04:16:24.531Z,14.53
2018-11-03T04:18:53.219Z,15.23
2018-11-03T04:21:26.716Z,10.43
2018-11-03T04:23:55.435Z,8.93
2018-11-03T04:26:24.131Z,12.67
2018-11-03T04:28:52.807Z,9.77
2018-11-03T04:31:21.498Z,12.00
2018-11-03T04:33:50.199Z,14.37
2018-11-03T04:36:18.890Z,11.57
2018-11-03T04:38:47.601Z,24.17
2018-11-03T04:41:16.288Z,21.30
2018-11-03T04:43:44.985Z,19.23
2018-11-03T04:46:13.673Z,18.80
2018-11-03T04:48:43.031Z,24.87
2018-11-03T04:51:11.754Z,25.43
2018-11-03T04:53:40.473Z,21.70
2018-11-03T04:56:09.166Z,20.30
2018-11-03T04:58:37.875Z,21.40
2018-11-03T05:01:06.598Z,25.10
2018-11-03T05:03:35.310Z,22.17
2018-11-03T05:06:04.047Z,22.03
2018-11-03T05:08:32.764Z,24.82
2018-11-03T05:11:01.458Z,22.40
2018-11-03T05:13:30.167Z,29.43
2018-11-03T05:15:58.861Z,29.00
2018-11-03T05:18:27.647Z,27.35
2018-11-03T05:20:56.338Z,28.73
2018-11-03T05:23:25.048Z,29.00
2018-11-03T05:25:53.749Z,29.17
2018-11-03T05:28:22.460Z,28.67
2018-11-03T05:30:51.150Z,30.10
2018-11-03T05:33:19.859Z,27.80
2018-11-03T05:35:48.566Z,29.02
2018-11-03T05:38:17.256Z,33.13
2018-11-03T05:40:45.958Z,29.93
2018-11-03T05:43:14.658Z,31.37
2018-11-03T05:45:43.346Z,27.97
2018-11-03T05:48:12.047Z,32.73
2018-11-03T05:50:40.745Z,28.75
2018-11-03T05:53:09.460Z,31.50
2018-11-03T05:55:38.155Z,33.63
2018-11-03T05:58:06.966Z,29.43
2018-11-03T06:00:35.963Z,30.50
2018-11-03T06:03:05.327Z,27.57
2018-11-03T06:05:34.029Z,27.50
2018-11-03T06:08:02.715Z,31.70
2018-11-03T06:10:31.398Z,26.55
2018-11-03T06:13:00.107Z,22.97
2018-11-03T06:15:28.894Z,31.90
2018-11-03T06:17:57.497Z,33.67
2018-11-03T06:20:26.306Z,24.12
2018-11-03T06:22:55.202Z,32.10
2018-11-03T06:25:23.847Z,27.47
2018-11-03T06:27:52.596Z,31.50
2018-11-03T06:30:21.247Z,34.73
2018-11-03T06:32:49.950Z,31.77
2018-11-03T06:35:18.724Z,27.17
2018-11-03T06:37:47.338Z,27.40
2018-11-03T06:40:16.047Z,31.15
2018-11-03T06:42:44.750Z,32.33
2018-11-03T06:45:13.447Z,28.23
2018-11-03T06:47:42.155Z,26.23
2018-11-03T06:50:10.854Z,25.37
2018-11-03T06:52:39.616Z,29.75
2018-11-03T06:55:09.232Z,26.00
2018-11-03T06:57:38.879Z,26.57
2018-11-03T07:00:08.569Z,30.10
2018-11-03T07:02:37.271Z,26.33
2018-11-03T07:05:06.689Z,27.93
2018-11-03T07:07:35.374Z,26.60
2018-11-03T07:10:04.251Z,30.67
2018-11-03T07:12:33.184Z,34.50
2018-11-03T07:15:01.851Z,29.77
2018-11-03T07:17:30.565Z,22.80
2018-11-03T07:19:59.239Z,30.97
2018-11-03T07:22:27.935Z,28.47
2018-11-03T07:24:56.706Z,24.87
2018-11-03T07:27:25.467Z,25.20
2018-11-03T07:29:54.204Z,26.97
2018-11-03T07:32:22.842Z,22.67
2018-11-03T07:34:51.918Z,26.20
2018-11-03T07:37:20.802Z,24.07
2018-11-03T07:39:49.614Z,24.07
2018-11-03T07:42:18.483Z,22.13
2018-11-03T07:44:47.219Z,21.87
2018-11-03T07:47:15.906Z,25.37
2018-11-03T07:49:44.611Z,25.97
2018-11-03T07:52:13.314Z,23.77
2018-11-03T07:54:42.077Z,29.23
2018-11-03T07:57:10.732Z,32.20
2018-11-03T07:59:39.567Z,25.40
2018-11-03T08:02:08.466Z,26.60
2018-11-03T08:04:37.236Z,23.60
2018-11-03T08:07:06.251Z,33.77
2018-11-03T08:09:35.042Z,25.27
2018-11-03T08:12:03.827Z,27.63
2018-11-03T08:14:32.536Z,21.90
2018-11-03T08:17:01.226Z,27.37
2018-11-03T08:19:29.930Z,25.40
2018-11-03T08:21:58.638Z,24.63
2018-11-03T08:24:27.334Z,60.37
2018-11-03T08:26:56.030Z,74.50
2018-11-03T08:29:24.726Z,36.70
2018-11-03T08:31:53.451Z,44.10
2018-11-03T08:34:22.163Z,22.83
2018-11-03T08:36:50.875Z,22.80
2018-11-03T08:39:19.595Z,20.20
2018-11-03T08:41:48.266Z,23.80
2018-11-03T08:44:16.964Z,23.13
2018-11-03T08:46:45.654Z,23.37
2018-11-03T08:49:14.347Z,20.53
2018-11-03T08:51:49.734Z,28.63
2018-11-03T08:54:18.458Z,18.80
2018-11-03T08:56:47.146Z,22.53
2018-11-03T08:59:15.834Z,24.83
2018-11-03T09:01:44.527Z,21.80
2018-11-03T09:04:13.222Z,23.27
2018-11-03T09:06:42.401Z,22.00
2018-11-03T09:09:11.031Z,18.87
2018-11-03T09:11:39.711Z,20.50
2018-11-03T09:14:08.407Z,21.83
2018-11-03T09:16:37.094Z,23.47
2018-11-03T09:19:06.162Z,24.33
2018-11-03T09:21:34.895Z,20.97
2018-11-03T09:24:04.195Z,22.33
2018-11-03T09:26:32.898Z,25.53
2018-11-03T09:29:01.604Z,18.60
2018-11-03T09:31:30.290Z,20.53
2018-11-03T09:33:58.994Z,21.60
2018-11-03T09:36:27.706Z,25.27
2018-11-03T09:38:56.447Z,22.47
2018-11-03T09:41:25.106Z,21.37
2018-11-03T09:43:53.820Z,20.87
2018-11-03T09:46:22.523Z,23.30
2018-11-03T09:48:51.234Z,24.03
2018-11-03T09:51:19.994Z,17.20
2018-11-03T09:53:48.694Z,23.77
2018-11-03T09:56:17.404Z,23.87
2018-11-03T09:58:46.164Z,20.27
2018-11-03T10:01:14.862Z,25.53
2018-11-03T10:03:43.559Z,23.37
2018-11-03T10:06:12.270Z,25.73
2018-11-03T10:08:40.964Z,26.13
2018-11-03T10:11:09.666Z,21.70
2018-11-03T10:13:38.388Z,20.73
2018-11-03T10:16:07.182Z,22.23
2018-11-03T10:18:35.785Z,21.33
2018-11-03T10:21:04.783Z,27.53
2018-11-03T10:23:33.589Z,25.57
2018-11-03T10:26:02.574Z,20.03
2018-11-03T10:28:31.261Z,20.63
2018-11-03T10:30:59.958Z,22.53
2018-11-03T10:33:28.684Z,23.57
2018-11-03T10:35:57.363Z,22.57
2018-11-03T10:38:26.058Z,21.70
2018-11-03T10:40:54.789Z,23.13
2018-11-03T10:43:23.460Z,21.00
2018-11-03T10:45:52.154Z,23.50
2018-11-03T10:48:20.848Z,23.27
2018-11-03T10:50:49.535Z,22.00
2018-11-03T10:53:18.238Z,24.97
2018-11-03T10:55:46.941Z,25.33
2018-11-03T10:58:15.631Z,23.53
2018-11-03T11:00:49.797Z,25.67
2018-11-03T11:03:24.165Z,23.97
2018-11-03T11:05:57.081Z,32.03
2018-11-03T11:08:31.582Z,26.23
2018-11-03T11:11:05.819Z,29.30
2018-11-03T11:13:36.002Z,30.50
2018-11-03T11:16:04.937Z,28.00
2018-11-03T11:18:33.611Z,29.70
2018-11-03T11:21:03.077Z,28.53
2018-11-03T11:23:31.819Z,28.10
2018-11-03T11:26:00.519Z,26.83
2018-11-03T11:28:29.223Z,26.77
2018-11-03T11:30:57.941Z,31.63
2018-11-03T11:33:26.645Z,32.10
2018-11-03T11:35:55.350Z,30.23
2018-11-03T11:38:24.040Z,26.13
2018-11-03T11:40:52.747Z,29.50
2018-11-03T11:43:21.487Z,32.87
2018-11-03T11:45:50.222Z,27.70
2018-11-03T11:48:18.910Z,32.30
2018-11-03T11:50:47.614Z,30.07
2018-11-03T11:53:16.318Z,30.63
2018-11-03T11:55:45.053Z,31.25
2018-11-03T11:58:13.746Z,30.10
2018-11-03T12:00:42.559Z,34.57
2018-11-03T12:03:11.172Z,36.73
2018-11-03T12:05:39.867Z,32.03
2018-11-03T12:08:08.570Z,30.67
2018-11-03T12:10:37.278Z,32.50
2018-11-03T12:13:06.094Z,33.67
2018-11-03T12:15:34.834Z,36.50
2018-11-03T12:18:03.612Z,31.83
2018-11-03T12:20:32.310Z,32.57
2018-11-03T12:23:01.002Z,31.10
2018-11-03T12:25:29.719Z,31.20
2018-11-03T12:27:58.390Z,35.57
2018-11-03T12:30:27.114Z,33.80
2018-11-03T12:32:55.802Z,31.83
2018-11-03T12:35:24.506Z,33.93
2018-11-03T12:37:53.195Z,34.93
2018-11-03T12:40:21.895Z,33.43
2018-11-03T12:42:50.589Z,33.90
2018-11-03T12:45:19.297Z,34.17
2018-11-03T12:47:47.978Z,36.43
2018-11-03T12:50:17.575Z,35.87
2018-11-03T12:52:46.350Z,35.17
2018-11-03T12:55:15.090Z,35.77
2018-11-03T12:57:44.032Z,33.87
2018-11-03T13:00:14.195Z,29.47
2018-11-03T13:02:44.070Z,33.73
2018-11-03T13:05:13.075Z,34.27
2018-11-03T13:07:42.876Z,34.27
2018-11-03T13:10:11.859Z,39.07
2018-11-03T13:12:41.266Z,30.80
2018-11-03T13:15:11.123Z,33.43
2018-11-03T13:17:39.926Z,33.77
2018-11-03T13:20:10.278Z,38.83
2018-11-03T13:22:39.100Z,36.17
2018-11-03T13:25:08.300Z,34.20
2018-11-03T13:27:37.068Z,38.27
2018-11-03T13:30:07.015Z,35.50
2018-11-03T13:32:35.709Z,33.93
2018-11-03T13:35:05.330Z,42.47
2018-11-03T13:37:34.151Z,35.33
2018-11-03T13:40:02.938Z,47.17
2018-11-03T13:42:31.643Z,38.73
2018-11-03T13:45:00.362Z,36.53
2018-11-03T13:47:29.290Z,37.23
2018-11-03T13:49:57.847Z,35.57
2018-11-03T13:52:26.562Z,35.83
2018-11-03T13:54:55.274Z,44.93
2018-11-03T13:57:24.643Z,41.70
2018-11-03T13:59:53.344Z,48.60
2018-11-03T14:02:22.042Z,41.60
2018-11-03T14:04:50.727Z,39.27
2018-11-03T14:07:19.426Z,46.77
2018-11-03T14:09:48.129Z,41.33
2018-11-03T14:12:16.827Z,37.60
2018-11-03T14:14:45.511Z,37.40
2018-11-03T14:17:14.317Z,39.40
2018-11-03T14:19:42.895Z,36.30
2018-11-03T14:22:11.583Z,38.40
2018-11-03T14:24:40.272Z,43.47
2018-11-03T14:27:09.009Z,33.40
2018-11-03T14:29:37.694Z,37.47
2018-11-03T14:32:06.397Z,37.42
2018-11-03T14:34:35.088Z,37.37
2018-11-03T14:37:03.786Z,37.53
2018-11-03T14:39:32.470Z,40.17
2018-11-03T14:42:01.163Z,32.37
2018-11-03T14:44:29.904Z,31.07
2018-11-03T14:46:58.555Z,34.33
2018-11-03T14:49:27.243Z,37.30
2018-11-03T14:51:56.195Z,38.80
2018-11-03T14:54:24.883Z,37.20
2018-11-03T14:56:53.578Z,38.37
2018-11-03T14:59:22.274Z,34.37
2018-11-03T15:01:50.982Z,43.23
2018-11-03T15:04:19.667Z,38.47
2018-11-03T15:06:48.381Z,38.87
2018-11-03T15:09:17.071Z,41.17
2018-11-03T15:11:45.774Z,42.27
2018-11-03T15:14:14.554Z,37.53
2018-11-03T15:16:43.159Z,36.50
2018-11-03T15:19:11.886Z,36.23
2018-11-03T15:21:40.615Z,40.73
2018-11-03T15:24:09.317Z,40.90
2018-11-03T15:26:38.058Z,41.03
2018-11-03T15:29:06.747Z,40.37
2018-11-03T15:31:35.475Z,36.60
2018-11-03T15:34:04.240Z,43.80
2018-11-03T15:36:32.939Z,37.80
2018-11-03T15:39:01.631Z,48.95
2018-11-03T15:41:30.346Z,43.10
2018-11-03T15:43:59.022Z,41.00
2018-11-03T15:46:27.715Z,41.47
2018-11-03T15:48:56.687Z,37.73
2018-11-03T15:51:25.383Z,37.23
2018-11-03T15:53:54.131Z,41.73
2018-11-03T15:56:22.863Z,37.53
2018-11-03T15:58:51.802Z,41.37
2018-11-03T16:01:20.567Z,37.83
2018-11-03T16:03:49.306Z,35.43
2018-11-03T16:06:17.994Z,35.17
2018-11-03T16:08:46.703Z,39.67
2018-11-03T16:11:15.482Z,41.33
2018-11-03T16:13:44.395Z,61.50
2018-11-03T16:16:13.083Z,74.53
2018-11-03T16:18:41.787Z,60.20
2018-11-03T16:21:10.483Z,45.05
2018-11-03T16:23:39.183Z,37.37
2018-11-03T16:26:07.879Z,35.97
2018-11-03T16:28:36.974Z,35.30
2018-11-03T16:31:05.536Z,35.43
2018-11-03T16:33:34.299Z,35.33
2018-11-03T16:36:03.011Z,41.23
2018-11-03T16:38:31.760Z,32.57
2018-11-03T16:41:00.406Z,32.50
2018-11-03T16:43:29.110Z,34.20
2018-11-03T16:45:57.802Z,32.37
2018-11-03T16:48:27.276Z,31.87
2018-11-03T16:50:56.118Z,29.93
2018-11-03T16:53:24.836Z,26.17
2018-11-03T16:55:53.545Z,41.00
2018-11-03T16:58:22.258Z,36.07
2018-11-03T17:00:50.983Z,33.37
2018-11-03T17:03:19.698Z,31.40
2018-11-03T17:05:48.434Z,29.57
2018-11-03T17:08:17.136Z,28.07
2018-11-03T17:10:45.834Z,37.00
2018-11-03T17:13:14.527Z,35.97
2018-11-03T17:15:43.215Z,27.63
2018-11-03T17:18:11.931Z,33.75
2018-11-03T17:20:40.638Z,31.70
2018-11-03T17:23:09.415Z,32.77
2018-11-03T17:25:38.043Z,32.73
2018-11-03T17:28:06.814Z,34.97
2018-11-03T17:30:35.503Z,33.33
2018-11-03T17:33:04.443Z,35.73
2018-11-03T17:35:33.134Z,36.73
2018-11-03T17:38:01.834Z,35.43
2018-11-03T17:40:30.539Z,43.80
2018-11-03T17:42:59.302Z,40.73
2018-11-03T17:45:27.934Z,43.07
2018-11-03T17:47:56.646Z,49.73
2018-11-03T17:50:25.351Z,45.50
2018-11-03T17:52:54.076Z,45.53
2018-11-03T17:55:22.772Z,40.93
2018-11-03T17:57:51.470Z,37.03
2018-11-03T18:00:20.228Z,39.33
2018-11-03T18:02:48.875Z,39.97
2018-11-03T18:05:17.571Z,37.27
2018-11-03T18:07:46.270Z,41.63
2018-11-03T18:10:14.967Z,44.07
2018-11-03T18:12:43.986Z,45.20
2018-11-03T18:15:12.760Z,39.97
2018-11-03T18:17:42.068Z,62.20
2018-11-03T18:20:11.375Z,282.97
2018-11-03T18:22:40.451Z,146.07
2018-11-03T18:25:09.459Z,128.10
2018-11-03T18:27:38.434Z,69.40
2018-11-03T18:30:08.791Z,52.60
2018-11-03T18:32:37.618Z,45.53
2018-11-03T18:35:06.623Z,43.90
2018-11-03T18:37:35.430Z,109.50
2018-11-03T18:40:04.460Z,71.00
2018-11-03T18:42:33.150Z,80.13
2018-11-03T18:45:01.934Z,49.43
2018-11-03T18:47:30.633Z,36.80
2018-11-03T18:49:59.373Z,32.33
2018-11-03T18:52:28.443Z,33.73
2018-11-03T18:54:57.149Z,32.20
2018-11-03T18:57:25.879Z,34.73
2018-11-03T18:59:54.586Z,31.57
2018-11-03T19:02:23.353Z,38.87
2018-11-03T19:04:51.994Z,41.67
2018-11-03T19:07:21.614Z,33.27
2018-11-03T19:09:50.315Z,78.53
2018-11-03T19:12:19.044Z,47.10
2018-11-03T19:14:47.745Z,40.37
2018-11-03T19:17:16.520Z,38.77
2018-11-03T19:19:45.263Z,33.67
2018-11-03T19:22:13.950Z,32.03
2018-11-03T19:24:42.675Z,34.50
2018-11-03T19:27:11.367Z,30.57
2018-11-03T19:29:40.131Z,30.90
2018-11-03T19:32:09.457Z,30.72
2018-11-03T19:34:39.066Z,28.63
2018-11-03T19:37:07.762Z,31.37
2018-11-03T19:39:36.484Z,30.67
2018-11-03T19:42:05.391Z,34.17
2018-11-03T19:44:34.094Z,35.63
2018-11-03T19:47:02.807Z,35.37
2018-11-03T19:49:31.499Z,35.60
2018-11-03T19:52:00.202Z,31.77
2018-11-03T19:54:28.902Z,36.13
2018-11-03T19:56:57.603Z,36.87
2018-11-03T19:59:26.307Z,36.90
2018-11-03T20:01:55.006Z,33.87
2018-11-03T20:04:23.706Z,38.80
2018-11-03T20:06:52.398Z,41.07
2018-11-03T20:09:21.107Z,37.10
2018-11-03T20:11:49.807Z,33.27
2018-11-03T20:14:18.514Z,36.80
2018-11-03T20:16:47.203Z,43.20
2018-11-03T20:19:15.951Z,45.57
2018-11-03T20:21:44.686Z,51.67
2018-11-03T20:24:13.398Z,43.80
2018-11-03T20:26:42.083Z,45.23
2018-11-03T20:29:10.832Z,45.73
2018-11-03T20:31:39.585Z,38.70
2018-11-03T20:34:08.291Z,38.10
2018-11-03T20:36:37.032Z,39.83
2018-11-03T20:39:07.505Z,43.23
2018-11-03T20:41:36.203Z,39.50
2018-11-03T20:44:05.124Z,38.30
2018-11-03T20:46:33.995Z,41.03
2018-11-03T20:49:02.727Z,38.43
2018-11-03T20:51:31.427Z,42.27
2018-11-03T20:54:00.211Z,42.67
2018-11-03T20:56:28.843Z,35.83
2018-11-03T20:58:57.642Z,41.63
2018-11-03T21:01:26.353Z,37.17
2018-11-03T21:03:55.075Z,42.77
2018-11-03T21:06:23.779Z,26.57
2018-11-03T21:08:52.786Z,35.03
2018-11-03T21:11:21.515Z,36.60
2018-11-03T21:13:50.289Z,36.97
2018-11-03T21:16:19.001Z,41.23
2018-11-03T21:18:47.726Z,41.23
2018-11-03T21:21:16.443Z,40.47
2018-11-03T21:23:45.219Z,34.70
2018-11-03T21:26:13.839Z,30.00
2018-11-03T21:28:42.538Z,39.87
2018-11-03T21:31:11.234Z,35.33
2018-11-03T21:33:40.054Z,32.53
2018-11-03T21:36:08.759Z,40.67
2018-11-03T21:38:37.552Z,37.33
2018-11-03T21:41:06.587Z,38.50
2018-11-03T21:43:35.323Z,34.83
2018-11-03T21:46:04.048Z,39.33
2018-11-03T21:48:32.715Z,37.37
2018-11-03T21:51:01.415Z,36.47
2018-11-03T21:53:30.116Z,33.67
2018-11-03T21:55:58.952Z,42.67
2018-11-03T21:58:27.503Z,38.97
2018-11-03T22:00:56.199Z,32.27
2018-11-03T22:03:24.912Z,37.27
2018-11-03T22:05:53.595Z,39.27
2018-11-03T22:08:23.266Z,36.83
2018-11-03T22:10:51.974Z,40.40
2018-11-03T22:13:20.665Z,42.70
2018-11-03T22:15:49.464Z,36.87
2018-11-03T22:18:18.059Z,35.80
2018-11-03T22:20:46.767Z,29.07
2018-11-03T22:23:15.460Z,36.27
2018-11-03T22:25:44.159Z,39.23
2018-11-03T22:28:12.855Z,35.50
2018-11-03T22:30:41.555Z,32.83
2018-11-03T22:33:10.244Z,33.07
2018-11-03T22:35:39.189Z,37.13
2018-11-03T22:38:07.874Z,29.50
2018-11-03T22:40:36.590Z,35.77
2018-11-03T22:43:05.299Z,35.07
2018-11-03T22:45:34.023Z,32.93
2018-11-03T22:48:02.710Z,35.30
2018-11-03T22:50:31.522Z,37.13
2018-11-03T22:53:07.030Z,33.63
2018-11-03T22:55:35.736Z,36.13
2018-11-03T22:58:04.642Z,31.30
2018-11-03T23:00:37.598Z,34.57
2018-11-03T23:03:06.737Z,33.30
2018-11-03T23:05:35.438Z,33.63
2018-11-03T23:08:04.126Z,31.23
2018-11-03T23:10:32.819Z,37.60
2018-11-03T23:13:01.528Z,34.23
2018-11-03T23:15:30.743Z,28.50
2018-11-03T23:17:59.442Z,35.63
2018-11-03T23:20:28.135Z,29.50
2018-11-03T23:22:56.831Z,35.50
2018-11-03T23:25:25.536Z,34.50
2018-11-03T23:27:54.235Z,39.17
2018-11-03T23:30:22.939Z,30.27
2018-11-03T23:32:51.646Z,30.63
2018-11-03T23:35:20.391Z,32.57
2018-11-03T23:37:49.128Z,37.33
2018-11-03T23:40:17.847Z,41.10
2018-11-03T23:42:46.546Z,39.50
2018-11-03T23:45:15.230Z,38.63
2018-11-03T23:47:43.958Z,35.63
2018-11-03T23:50:13.846Z,40.83
2018-11-03T23:52:43.412Z,34.87
2018-11-03T23:55:12.144Z,32.50
2018-11-03T23:57:40.887Z,37.27
